sensor_id;sensor_type;location;lat;lon;timestamp;pressure;altitude;pressure_sealevel;temperature;humidity
75759;BME280;64371;47.566;19.086;2023-07-24T00:02:20;100129.22;;;22.48;71.83
75759;BME280;64371;47.566;19.086;2023-07-24T00:05:22;100120.19;;;22.34;72.19
75759;BME280;64371;47.566;19.086;2023-07-24T00:08:25;100117.50;;;22.34;72.39
75759;BME280;64371;47.566;19.086;2023-07-24T00:11:29;100120.88;;;22.27;72.48
75759;BME280;64371;47.566;19.086;2023-07-24T00:14:32;100117.41;;;22.27;72.91
75759;BME280;64371;47.566;19.086;2023-07-24T00:17:35;100116.81;;;22.40;72.39
75759;BME280;64371;47.566;19.086;2023-07-24T00:20:37;100122.97;;;22.41;72.25
75759;BME280;64371;47.566;19.086;2023-07-24T00:23:40;100118.22;;;22.31;73.28
75759;BME280;64371;47.566;19.086;2023-07-24T00:26:42;100123.72;;;22.38;72.63
75759;BME280;64371;47.566;19.086;2023-07-24T00:29:47;100120.81;;;22.50;72.06
75759;BME280;64371;47.566;19.086;2023-07-24T00:32:49;100108.13;;;22.51;72.45
75759;BME280;64371;47.566;19.086;2023-07-24T00:35:56;100108.53;;;22.53;72.12
75759;BME280;64371;47.566;19.086;2023-07-24T00:39:00;100103.59;;;22.55;72.17
75759;BME280;64371;47.566;19.086;2023-07-24T00:42:06;100097.03;;;22.52;72.53
75759;BME280;64371;47.566;19.086;2023-07-24T00:45:09;100095.69;;;22.65;72.17
75759;BME280;64371;47.566;19.086;2023-07-24T00:48:12;100090.00;;;22.44;73.04
75759;BME280;64371;47.566;19.086;2023-07-24T00:51:14;100088.09;;;22.44;73.00
75759;BME280;64371;47.566;19.086;2023-07-24T00:54:18;100091.47;;;22.64;71.99
75759;BME280;64371;47.566;19.086;2023-07-24T00:57:21;100087.41;;;22.51;72.45
75759;BME280;64371;47.566;19.086;2023-07-24T01:00:24;100088.22;;;22.55;72.75
75759;BME280;64371;47.566;19.086;2023-07-24T01:03:34;100082.75;;;22.48;72.74
75759;BME280;64371;47.566;19.086;2023-07-24T01:06:38;100079.81;;;22.57;72.76
75759;BME280;64371;47.566;19.086;2023-07-24T01:09:40;100075.44;;;22.45;73.40
75759;BME280;64371;47.566;19.086;2023-07-24T01:13:02;100079.03;;;22.56;72.39
75759;BME280;64371;47.566;19.086;2023-07-24T01:16:09;100081.66;;;22.53;72.91
75759;BME280;64371;47.566;19.086;2023-07-24T01:19:43;100079.81;;;22.57;73.22
75759;BME280;64371;47.566;19.086;2023-07-24T01:26:14;100074.59;;;22.37;73.59
75759;BME280;64371;47.566;19.086;2023-07-24T01:29:18;100084.31;;;22.49;73.26
75759;BME280;64371;47.566;19.086;2023-07-24T01:32:21;100079.19;;;22.40;73.39
75759;BME280;64371;47.566;19.086;2023-07-24T01:35:24;100080.38;;;22.43;73.42
75759;BME280;64371;47.566;19.086;2023-07-24T01:38:27;100074.28;;;22.46;73.37
75759;BME280;64371;47.566;19.086;2023-07-24T01:41:30;100064.66;;;22.41;73.21
75759;BME280;64371;47.566;19.086;2023-07-24T01:44:34;100063.59;;;22.20;74.52
75759;BME280;64371;47.566;19.086;2023-07-24T01:47:36;100050.22;;;22.23;74.48
75759;BME280;64371;47.566;19.086;2023-07-24T01:50:40;100062.91;;;22.26;74.31
75759;BME280;64371;47.566;19.086;2023-07-24T01:53:45;100067.09;;;22.24;74.56
75759;BME280;64371;47.566;19.086;2023-07-24T01:56:47;100065.06;;;22.14;75.00
75759;BME280;64371;47.566;19.086;2023-07-24T01:59:50;100063.41;;;22.06;75.18
75759;BME280;64371;47.566;19.086;2023-07-24T02:02:53;100065.16;;;22.21;74.71
75759;BME280;64371;47.566;19.086;2023-07-24T02:05:56;100061.13;;;22.08;75.14
75759;BME280;64371;47.566;19.086;2023-07-24T02:09:00;100061.53;;;22.10;75.31
75759;BME280;64371;47.566;19.086;2023-07-24T02:12:03;100058.75;;;22.03;75.73
75759;BME280;64371;47.566;19.086;2023-07-24T02:15:06;100066.09;;;22.06;75.51
75759;BME280;64371;47.566;19.086;2023-07-24T02:18:10;100066.19;;;22.13;75.17
75759;BME280;64371;47.566;19.086;2023-07-24T02:21:12;100065.72;;;22.07;75.87
75759;BME280;64371;47.566;19.086;2023-07-24T02:24:14;100070.78;;;22.12;75.55
75759;BME280;64371;47.566;19.086;2023-07-24T02:27:27;100068.88;;;22.13;75.61
75759;BME280;64371;47.566;19.086;2023-07-24T02:30:32;100069.75;;;21.94;76.40
75759;BME280;64371;47.566;19.086;2023-07-24T02:33:34;100067.72;;;21.88;77.18
75759;BME280;64371;47.566;19.086;2023-07-24T02:36:37;100078.63;;;21.75;77.44
75759;BME280;64371;47.566;19.086;2023-07-24T02:39:42;100075.69;;;21.84;77.31
75759;BME280;64371;47.566;19.086;2023-07-24T02:42:45;100065.16;;;21.72;77.95
75759;BME280;64371;47.566;19.086;2023-07-24T02:45:47;100068.25;;;21.74;77.69
75759;BME280;64371;47.566;19.086;2023-07-24T02:48:52;100072.03;;;21.69;78.06
75759;BME280;64371;47.566;19.086;2023-07-24T02:51:54;100072.91;;;21.54;78.60
75759;BME280;64371;47.566;19.086;2023-07-24T02:54:59;100065.84;;;21.43;78.49
75759;BME280;64371;47.566;19.086;2023-07-24T02:58:02;100072.28;;;21.38;78.73
75759;BME280;64371;47.566;19.086;2023-07-24T03:01:06;100071.06;;;21.36;78.98
75759;BME280;64371;47.566;19.086;2023-07-24T03:04:09;100065.22;;;21.30;79.00
75759;BME280;64371;47.566;19.086;2023-07-24T03:07:12;100055.44;;;21.19;79.91
75759;BME280;64371;47.566;19.086;2023-07-24T03:10:14;100065.56;;;21.06;80.61
75759;BME280;64371;47.566;19.086;2023-07-24T03:13:16;100063.28;;;21.08;80.69
75759;BME280;64371;47.566;19.086;2023-07-24T03:16:19;100061.59;;;20.81;81.76
75759;BME280;64371;47.566;19.086;2023-07-24T03:19:24;100064.28;;;21.00;81.15
75759;BME280;64371;47.566;19.086;2023-07-24T03:22:26;100059.97;;;20.95;81.46
75759;BME280;64371;47.566;19.086;2023-07-24T03:25:29;100068.00;;;20.76;82.58
75759;BME280;64371;47.566;19.086;2023-07-24T03:28:33;100067.31;;;20.79;82.41
75759;BME280;64371;47.566;19.086;2023-07-24T03:31:37;100053.88;;;20.76;82.71
75759;BME280;64371;47.566;19.086;2023-07-24T03:34:40;100050.41;;;20.75;82.50
75759;BME280;64371;47.566;19.086;2023-07-24T03:37:43;100057.66;;;20.75;83.04
75759;BME280;64371;47.566;19.086;2023-07-24T03:40:45;100062.25;;;20.74;83.24
75759;BME280;64371;47.566;19.086;2023-07-24T03:43:49;100056.75;;;20.67;83.81
75759;BME280;64371;47.566;19.086;2023-07-24T03:46:52;100063.84;;;20.79;83.19
75759;BME280;64371;47.566;19.086;2023-07-24T03:49:54;100057.66;;;20.75;83.22
75759;BME280;64371;47.566;19.086;2023-07-24T03:52:57;100062.78;;;20.83;83.14
75759;BME280;64371;47.566;19.086;2023-07-24T03:56:00;100052.94;;;20.87;82.87
75759;BME280;64371;47.566;19.086;2023-07-24T03:59:02;100054.19;;;20.93;82.67
75759;BME280;64371;47.566;19.086;2023-07-24T04:02:05;100056.81;;;21.09;81.74
75759;BME280;64371;47.566;19.086;2023-07-24T04:05:11;100057.41;;;21.02;82.26
75759;BME280;64371;47.566;19.086;2023-07-24T04:08:13;100058.19;;;21.03;82.08
75759;BME280;64371;47.566;19.086;2023-07-24T04:11:20;100050.75;;;21.12;82.05
75759;BME280;64371;47.566;19.086;2023-07-24T04:14:25;100059.75;;;21.04;82.64
75759;BME280;64371;47.566;19.086;2023-07-24T04:17:29;100058.06;;;21.15;81.99
75759;BME280;64371;47.566;19.086;2023-07-24T04:20:32;100057.34;;;21.18;81.99
75759;BME280;64371;47.566;19.086;2023-07-24T04:23:34;100054.97;;;21.13;82.09
75759;BME280;64371;47.566;19.086;2023-07-24T04:26:39;100057.53;;;21.06;82.46
75759;BME280;64371;47.566;19.086;2023-07-24T04:29:42;100052.41;;;21.20;81.75
75759;BME280;64371;47.566;19.086;2023-07-24T04:32:44;100057.72;;;21.17;81.78
75759;BME280;64371;47.566;19.086;2023-07-24T04:35:49;100051.81;;;21.30;81.22
75759;BME280;64371;47.566;19.086;2023-07-24T04:38:52;100052.13;;;21.48;80.17
75759;BME280;64371;47.566;19.086;2023-07-24T04:41:54;100059.63;;;21.61;79.63
75759;BME280;64371;47.566;19.086;2023-07-24T04:45:06;100062.81;;;21.93;78.58
75759;BME280;64371;47.566;19.086;2023-07-24T04:48:08;100054.63;;;22.09;77.66
75759;BME280;64371;47.566;19.086;2023-07-24T04:51:11;100065.13;;;22.51;75.83
75759;BME280;64371;47.566;19.086;2023-07-24T04:54:13;100057.72;;;22.67;75.29
75759;BME280;64371;47.566;19.086;2023-07-24T04:57:15;100074.94;;;22.99;73.50
75759;BME280;64371;47.566;19.086;2023-07-24T05:00:18;100071.03;;;23.30;72.39
75759;BME280;64371;47.566;19.086;2023-07-24T05:03:20;100069.28;;;23.44;71.56
75759;BME280;64371;47.566;19.086;2023-07-24T05:06:23;100056.38;;;23.24;72.47
75759;BME280;64371;47.566;19.086;2023-07-24T05:09:25;100070.88;;;23.49;71.35
75759;BME280;64371;47.566;19.086;2023-07-24T05:12:28;100075.97;;;23.61;70.97
75759;BME280;64371;47.566;19.086;2023-07-24T05:15:31;100071.84;;;23.77;69.97
75759;BME280;64371;47.566;19.086;2023-07-24T05:18:33;100067.81;;;24.05;69.17
75759;BME280;64371;47.566;19.086;2023-07-24T05:21:41;100070.31;;;24.31;68.28
75759;BME280;64371;47.566;19.086;2023-07-24T05:24:44;100070.41;;;24.59;67.45
75759;BME280;64371;47.566;19.086;2023-07-24T05:27:46;100073.28;;;24.98;65.58
75759;BME280;64371;47.566;19.086;2023-07-24T05:30:48;100067.47;;;24.85;66.01
75759;BME280;64371;47.566;19.086;2023-07-24T05:33:51;100071.78;;;25.18;65.31
75759;BME280;64371;47.566;19.086;2023-07-24T05:36:53;100062.94;;;25.42;64.37
75759;BME280;64371;47.566;19.086;2023-07-24T05:39:56;100068.72;;;25.37;64.17
75759;BME280;64371;47.566;19.086;2023-07-24T05:42:58;100071.84;;;25.50;64.28
75759;BME280;64371;47.566;19.086;2023-07-24T05:46:01;100073.38;;;25.79;63.56
75759;BME280;64371;47.566;19.086;2023-07-24T05:49:04;100068.72;;;26.15;62.42
75759;BME280;64371;47.566;19.086;2023-07-24T05:52:06;100064.38;;;26.46;61.46
75759;BME280;64371;47.566;19.086;2023-07-24T05:55:10;100060.88;;;26.49;61.35
75759;BME280;64371;47.566;19.086;2023-07-24T05:58:14;100060.03;;;26.76;60.78
75759;BME280;64371;47.566;19.086;2023-07-24T06:01:17;100067.16;;;27.11;59.77
75759;BME280;64371;47.566;19.086;2023-07-24T06:04:19;100059.19;;;26.86;60.19
75759;BME280;64371;47.566;19.086;2023-07-24T06:07:22;100057.19;;;26.97;59.98
75759;BME280;64371;47.566;19.086;2023-07-24T06:10:24;100057.69;;;27.44;59.09
75759;BME280;64371;47.566;19.086;2023-07-24T06:13:27;100049.91;;;27.46;58.77
75759;BME280;64371;47.566;19.086;2023-07-24T06:16:30;100050.53;;;27.64;58.31
75759;BME280;64371;47.566;19.086;2023-07-24T06:19:34;100056.19;;;27.80;57.48
75759;BME280;64371;47.566;19.086;2023-07-24T06:22:36;100058.09;;;28.24;56.56
75759;BME280;64371;47.566;19.086;2023-07-24T06:25:39;100056.38;;;28.37;56.24
75759;BME280;64371;47.566;19.086;2023-07-24T06:28:41;100051.69;;;28.41;55.99
75759;BME280;64371;47.566;19.086;2023-07-24T06:31:46;100046.91;;;28.52;55.85
75759;BME280;64371;47.566;19.086;2023-07-24T06:34:50;100051.22;;;28.80;54.40
75759;BME280;64371;47.566;19.086;2023-07-24T06:37:55;100048.88;;;28.82;54.80
75759;BME280;64371;47.566;19.086;2023-07-24T06:40:57;100051.16;;;29.10;54.27
75759;BME280;64371;47.566;19.086;2023-07-24T06:44:00;100049.88;;;29.18;53.83
75759;BME280;64371;47.566;19.086;2023-07-24T06:47:02;100054.03;;;29.00;54.70
75759;BME280;64371;47.566;19.086;2023-07-24T06:50:09;100057.69;;;28.89;54.42
75759;BME280;64371;47.566;19.086;2023-07-24T06:53:12;100042.88;;;28.94;54.41
75759;BME280;64371;47.566;19.086;2023-07-24T06:56:14;100048.38;;;29.64;52.79
75759;BME280;64371;47.566;19.086;2023-07-24T06:59:16;100042.25;;;29.83;52.05
75759;BME280;64371;47.566;19.086;2023-07-24T07:02:19;100051.22;;;29.56;52.85
75759;BME280;64371;47.566;19.086;2023-07-24T07:05:21;100043.66;;;29.91;52.02
75759;BME280;64371;47.566;19.086;2023-07-24T07:08:27;100042.97;;;30.06;51.12
75759;BME280;64371;47.566;19.086;2023-07-24T07:11:29;100039.84;;;29.88;51.57
75759;BME280;64371;47.566;19.086;2023-07-24T07:14:32;100034.28;;;30.15;51.50
75759;BME280;64371;47.566;19.086;2023-07-24T07:17:35;100029.63;;;30.71;50.35
75759;BME280;64371;47.566;19.086;2023-07-24T07:20:37;100031.59;;;30.11;51.41
75759;BME280;64371;47.566;19.086;2023-07-24T07:23:39;100028.19;;;30.27;50.91
75759;BME280;64371;47.566;19.086;2023-07-24T07:26:42;100018.00;;;30.31;51.07
75759;BME280;64371;47.566;19.086;2023-07-24T07:29:45;100012.66;;;29.88;52.48
75759;BME280;64371;47.566;19.086;2023-07-24T07:32:48;100009.38;;;30.16;51.39
75759;BME280;64371;47.566;19.086;2023-07-24T07:35:51;100010.47;;;30.19;51.48
75759;BME280;64371;47.566;19.086;2023-07-24T07:38:55;100018.09;;;30.83;50.09
75759;BME280;64371;47.566;19.086;2023-07-24T07:41:57;100010.56;;;31.07;49.32
75759;BME280;64371;47.566;19.086;2023-07-24T07:45:19;100014.97;;;31.01;49.69
75759;BME280;64371;47.566;19.086;2023-07-24T07:48:22;100007.25;;;30.79;50.09
75759;BME280;64371;47.566;19.086;2023-07-24T07:51:24;100010.22;;;31.05;49.34
75759;BME280;64371;47.566;19.086;2023-07-24T07:54:29;100003.47;;;31.41;48.43
75759;BME280;64371;47.566;19.086;2023-07-24T07:57:35;100008.34;;;31.79;47.06
75759;BME280;64371;47.566;19.086;2023-07-24T08:00:38;100017.34;;;30.99;49.22
75759;BME280;64371;47.566;19.086;2023-07-24T08:03:42;100012.59;;;31.19;47.85
75759;BME280;64371;47.566;19.086;2023-07-24T08:06:45;100005.94;;;31.36;48.46
75759;BME280;64371;47.566;19.086;2023-07-24T08:09:48;100006.69;;;32.39;46.28
75759;BME280;64371;47.566;19.086;2023-07-24T08:12:51;100003.03;;;32.04;47.23
75759;BME280;64371;47.566;19.086;2023-07-24T08:15:53;100003.47;;;32.56;45.76
75759;BME280;64371;47.566;19.086;2023-07-24T08:18:56;99991.44;;;32.54;45.29
75759;BME280;64371;47.566;19.086;2023-07-24T08:21:59;99988.53;;;32.20;46.23
75759;BME280;64371;47.566;19.086;2023-07-24T08:25:02;99988.03;;;31.67;47.05
75759;BME280;64371;47.566;19.086;2023-07-24T08:28:04;99987.91;;;32.28;45.02
75759;BME280;64371;47.566;19.086;2023-07-24T08:31:08;99991.19;;;32.36;44.60
75759;BME280;64371;47.566;19.086;2023-07-24T08:34:11;99988.81;;;31.52;47.08
75759;BME280;64371;47.566;19.086;2023-07-24T08:37:14;99985.50;;;31.60;46.12
75759;BME280;64371;47.566;19.086;2023-07-24T08:40:16;99989.09;;;32.27;44.24
75759;BME280;64371;47.566;19.086;2023-07-24T08:43:20;99987.34;;;32.21;45.33
75759;BME280;64371;47.566;19.086;2023-07-24T08:46:25;99981.94;;;32.84;43.04
75759;BME280;64371;47.566;19.086;2023-07-24T08:49:30;99973.94;;;32.39;44.24
75759;BME280;64371;47.566;19.086;2023-07-24T08:52:33;99968.09;;;31.99;44.61
75759;BME280;64371;47.566;19.086;2023-07-24T08:55:38;99963.22;;;32.06;44.17
75759;BME280;64371;47.566;19.086;2023-07-24T08:58:43;99962.28;;;32.38;42.79
75759;BME280;64371;47.566;19.086;2023-07-24T09:01:45;99963.69;;;32.93;41.96
75759;BME280;64371;47.566;19.086;2023-07-24T09:04:48;99963.09;;;33.58;40.94
75759;BME280;64371;47.566;19.086;2023-07-24T09:07:50;99955.28;;;33.47;40.51
75759;BME280;64371;47.566;19.086;2023-07-24T09:10:53;99942.28;;;32.92;41.55
75759;BME280;64371;47.566;19.086;2023-07-24T09:13:55;99935.16;;;33.07;41.34
75759;BME280;64371;47.566;19.086;2023-07-24T09:17:02;99943.03;;;33.05;41.41
75759;BME280;64371;47.566;19.086;2023-07-24T09:20:05;99936.16;;;32.88;41.30
75759;BME280;64371;47.566;19.086;2023-07-24T09:23:09;99942.31;;;32.66;41.28
75759;BME280;64371;47.566;19.086;2023-07-24T09:26:18;99944.97;;;33.17;40.28
75759;BME280;64371;47.566;19.086;2023-07-24T09:29:30;99942.19;;;32.83;40.25
75759;BME280;64371;47.566;19.086;2023-07-24T09:32:33;99946.03;;;33.32;40.00
75759;BME280;64371;47.566;19.086;2023-07-24T09:35:36;99938.25;;;32.96;40.50
75759;BME280;64371;47.566;19.086;2023-07-24T09:38:40;99935.41;;;33.34;38.44
75759;BME280;64371;47.566;19.086;2023-07-24T09:41:44;99921.50;;;33.07;38.74
75759;BME280;64371;47.566;19.086;2023-07-24T09:44:51;99913.19;;;33.10;38.59
75759;BME280;64371;47.566;19.086;2023-07-24T09:47:54;99909.59;;;33.01;38.51
75759;BME280;64371;47.566;19.086;2023-07-24T09:51:05;99905.25;;;33.03;37.72
75759;BME280;64371;47.566;19.086;2023-07-24T09:54:15;99892.50;;;33.22;37.19
75759;BME280;64371;47.566;19.086;2023-07-24T09:57:23;99897.75;;;33.72;36.37
75759;BME280;64371;47.566;19.086;2023-07-24T10:00:29;99902.00;;;33.95;35.88
75759;BME280;64371;47.566;19.086;2023-07-24T10:03:38;99883.16;;;33.97;36.47
75759;BME280;64371;47.566;19.086;2023-07-24T10:06:44;99883.38;;;33.37;38.17
75759;BME280;64371;47.566;19.086;2023-07-24T10:09:52;99886.38;;;33.52;36.92
75759;BME280;64371;47.566;19.086;2023-07-24T10:12:55;99881.78;;;33.49;37.21
75759;BME280;64371;47.566;19.086;2023-07-24T10:15:58;99874.81;;;34.00;36.00
75759;BME280;64371;47.566;19.086;2023-07-24T10:19:01;99869.09;;;34.08;35.31
75759;BME280;64371;47.566;19.086;2023-07-24T10:22:03;99871.94;;;33.73;35.62
75759;BME280;64371;47.566;19.086;2023-07-24T10:25:06;99869.19;;;33.73;35.58
75759;BME280;64371;47.566;19.086;2023-07-24T10:28:11;99875.09;;;34.24;34.94
75759;BME280;64371;47.566;19.086;2023-07-24T10:31:24;99857.03;;;34.36;33.49
75759;BME280;64371;47.566;19.086;2023-07-24T10:34:38;99848.69;;;34.39;32.69
75759;BME280;64371;47.566;19.086;2023-07-24T10:37:41;99848.88;;;34.05;33.74
75759;BME280;64371;47.566;19.086;2023-07-24T10:40:47;99839.13;;;34.44;32.32
75759;BME280;64371;47.566;19.086;2023-07-24T10:43:59;99831.81;;;34.41;32.45
75759;BME280;64371;47.566;19.086;2023-07-24T10:47:03;99843.25;;;34.09;32.49
75759;BME280;64371;47.566;19.086;2023-07-24T10:50:07;99834.72;;;34.07;32.44
75759;BME280;64371;47.566;19.086;2023-07-24T10:53:11;99827.19;;;33.89;33.28
75759;BME280;64371;47.566;19.086;2023-07-24T10:56:14;99826.34;;;33.70;32.92
75759;BME280;64371;47.566;19.086;2023-07-24T10:59:17;99815.50;;;33.58;33.25
75759;BME280;64371;47.566;19.086;2023-07-24T11:02:20;99802.44;;;32.97;34.37
75759;BME280;64371;47.566;19.086;2023-07-24T11:05:23;99805.75;;;32.92;34.36
75759;BME280;64371;47.566;19.086;2023-07-24T11:08:26;99805.84;;;33.22;33.25
75759;BME280;64371;47.566;19.086;2023-07-24T11:11:30;99795.91;;;32.60;34.24
75759;BME280;64371;47.566;19.086;2023-07-24T11:14:34;99798.50;;;33.41;32.93
75759;BME280;64371;47.566;19.086;2023-07-24T11:17:38;99787.06;;;33.86;31.89
75759;BME280;64371;47.566;19.086;2023-07-24T11:20:44;99771.16;;;33.93;31.15
75759;BME280;64371;47.566;19.086;2023-07-24T11:23:52;99768.22;;;33.79;31.70
75759;BME280;64371;47.566;19.086;2023-07-24T11:26:55;99771.00;;;33.35;32.35
75759;BME280;64371;47.566;19.086;2023-07-24T11:29:58;99760.25;;;33.41;32.18
75759;BME280;64371;47.566;19.086;2023-07-24T11:33:09;99754.59;;;33.57;32.64
75759;BME280;64371;47.566;19.086;2023-07-24T11:36:12;99755.84;;;34.05;32.04
75759;BME280;64371;47.566;19.086;2023-07-24T11:39:24;99739.34;;;33.87;32.62
75759;BME280;64371;47.566;19.086;2023-07-24T11:42:30;99724.91;;;33.77;32.54
75759;BME280;64371;47.566;19.086;2023-07-24T11:45:44;99722.19;;;33.86;32.84
75759;BME280;64371;47.566;19.086;2023-07-24T11:48:48;99709.34;;;33.56;33.43
75759;BME280;64371;47.566;19.086;2023-07-24T11:51:50;99710.44;;;33.68;33.01
75759;BME280;64371;47.566;19.086;2023-07-24T11:54:57;99708.34;;;33.50;33.09
75759;BME280;64371;47.566;19.086;2023-07-24T11:58:05;99698.75;;;33.36;33.74
75759;BME280;64371;47.566;19.086;2023-07-24T12:01:08;99693.44;;;33.73;33.41
75759;BME280;64371;47.566;19.086;2023-07-24T12:04:10;99692.69;;;33.41;33.50
75759;BME280;64371;47.566;19.086;2023-07-24T12:07:14;99688.44;;;33.71;32.34
75759;BME280;64371;47.566;19.086;2023-07-24T12:10:26;99687.97;;;33.82;32.51
75759;BME280;64371;47.566;19.086;2023-07-24T12:13:32;99678.34;;;34.08;31.43
75759;BME280;64371;47.566;19.086;2023-07-24T12:16:36;99680.63;;;34.28;30.19
75759;BME280;64371;47.566;19.086;2023-07-24T12:19:38;99673.69;;;34.54;29.91
75759;BME280;64371;47.566;19.086;2023-07-24T12:22:41;99665.28;;;34.30;31.10
75759;BME280;64371;47.566;19.086;2023-07-24T12:25:43;99659.81;;;34.21;29.98
75759;BME280;64371;47.566;19.086;2023-07-24T12:28:46;99656.31;;;34.21;31.70
75759;BME280;64371;47.566;19.086;2023-07-24T12:31:48;99655.03;;;33.76;32.37
75759;BME280;64371;47.566;19.086;2023-07-24T12:34:52;99648.31;;;33.77;32.24
75759;BME280;64371;47.566;19.086;2023-07-24T12:37:54;99643.19;;;33.97;32.28
75759;BME280;64371;47.566;19.086;2023-07-24T12:40:57;99629.28;;;34.23;31.68
75759;BME280;64371;47.566;19.086;2023-07-24T12:43:59;99625.91;;;34.28;31.48
75759;BME280;64371;47.566;19.086;2023-07-24T12:47:03;99615.72;;;34.19;32.04
75759;BME280;64371;47.566;19.086;2023-07-24T12:50:06;99617.34;;;33.80;32.09
75759;BME280;64371;47.566;19.086;2023-07-24T12:53:09;99618.31;;;34.23;31.53
75759;BME280;64371;47.566;19.086;2023-07-24T12:56:14;99595.22;;;34.06;32.21
75759;BME280;64371;47.566;19.086;2023-07-24T12:59:18;99603.66;;;33.98;31.96
75759;BME280;64371;47.566;19.086;2023-07-24T13:02:23;99604.16;;;34.24;32.38
75759;BME280;64371;47.566;19.086;2023-07-24T13:05:25;99588.06;;;34.08;33.04
75759;BME280;64371;47.566;19.086;2023-07-24T13:08:28;99582.41;;;34.02;32.91
75759;BME280;64371;47.566;19.086;2023-07-24T13:11:31;99577.88;;;34.09;33.14
75759;BME280;64371;47.566;19.086;2023-07-24T13:14:36;99581.63;;;33.66;34.58
75759;BME280;64371;47.566;19.086;2023-07-24T13:17:43;99571.16;;;33.64;34.72
75759;BME280;64371;47.566;19.086;2023-07-24T13:20:45;99564.03;;;33.76;33.71
75759;BME280;64371;47.566;19.086;2023-07-24T13:23:55;99574.22;;;34.02;32.66
75759;BME280;64371;47.566;19.086;2023-07-24T13:26:58;99573.75;;;34.13;32.46
75759;BME280;64371;47.566;19.086;2023-07-24T13:30:00;99563.56;;;33.95;33.05
75759;BME280;64371;47.566;19.086;2023-07-24T13:33:06;99550.97;;;34.07;33.33
75759;BME280;64371;47.566;19.086;2023-07-24T13:36:09;99540.31;;;34.00;33.77
75759;BME280;64371;47.566;19.086;2023-07-24T13:39:11;99530.91;;;34.19;34.30
75759;BME280;64371;47.566;19.086;2023-07-24T13:42:14;99535.44;;;34.31;34.13
75759;BME280;64371;47.566;19.086;2023-07-24T13:45:17;99522.69;;;34.01;33.62
75759;BME280;64371;47.566;19.086;2023-07-24T13:48:19;99517.69;;;33.72;34.93
75759;BME280;64371;47.566;19.086;2023-07-24T13:51:22;99526.34;;;33.71;34.32
75759;BME280;64371;47.566;19.086;2023-07-24T13:54:24;99527.25;;;33.59;34.73
75759;BME280;64371;47.566;19.086;2023-07-24T13:57:29;99517.84;;;33.78;34.54
75759;BME280;64371;47.566;19.086;2023-07-24T14:00:32;99506.75;;;34.09;33.44
75759;BME280;64371;47.566;19.086;2023-07-24T14:03:34;99496.09;;;34.11;33.24
75759;BME280;64371;47.566;19.086;2023-07-24T14:06:37;99492.00;;;33.61;34.23
75759;BME280;64371;47.566;19.086;2023-07-24T14:09:40;99480.47;;;33.57;34.24
75759;BME280;64371;47.566;19.086;2023-07-24T14:12:46;99479.53;;;33.32;34.97
75759;BME280;64371;47.566;19.086;2023-07-24T14:15:49;99470.69;;;33.28;35.12
75759;BME280;64371;47.566;19.086;2023-07-24T14:18:53;99464.34;;;33.50;34.46
75759;BME280;64371;47.566;19.086;2023-07-24T14:21:58;99462.06;;;33.39;33.91
75759;BME280;64371;47.566;19.086;2023-07-24T14:25:01;99449.59;;;33.20;32.66
75759;BME280;64371;47.566;19.086;2023-07-24T14:28:03;99449.47;;;33.41;32.38
75759;BME280;64371;47.566;19.086;2023-07-24T14:31:06;99450.22;;;33.51;32.33
75759;BME280;64371;47.566;19.086;2023-07-24T14:34:08;99445.38;;;33.55;33.12
75759;BME280;64371;47.566;19.086;2023-07-24T14:37:16;99438.22;;;33.49;33.25
75759;BME280;64371;47.566;19.086;2023-07-24T14:40:19;99439.75;;;33.68;33.28
75759;BME280;64371;47.566;19.086;2023-07-24T14:43:22;99420.19;;;33.60;33.69
75759;BME280;64371;47.566;19.086;2023-07-24T14:46:24;99421.69;;;33.25;34.47
75759;BME280;64371;47.566;19.086;2023-07-24T14:49:27;99404.84;;;33.45;34.28
75759;BME280;64371;47.566;19.086;2023-07-24T14:52:29;99394.50;;;33.49;33.34
75759;BME280;64371;47.566;19.086;2023-07-24T14:55:32;99393.31;;;33.13;34.28
75759;BME280;64371;47.566;19.086;2023-07-24T14:58:37;99389.81;;;33.04;33.86
75759;BME280;64371;47.566;19.086;2023-07-24T15:01:40;99383.75;;;33.09;33.64
75759;BME280;64371;47.566;19.086;2023-07-24T15:04:45;99379.00;;;33.09;32.47
75759;BME280;64371;47.566;19.086;2023-07-24T15:07:47;99391.47;;;33.37;31.20
75759;BME280;64371;47.566;19.086;2023-07-24T15:10:49;99393.31;;;33.59;31.02
75759;BME280;64371;47.566;19.086;2023-07-24T15:13:52;99390.53;;;33.40;31.16
75759;BME280;64371;47.566;19.086;2023-07-24T15:16:54;99383.88;;;33.23;31.53
75759;BME280;64371;47.566;19.086;2023-07-24T15:19:57;99393.75;;;33.21;32.32
75759;BME280;64371;47.566;19.086;2023-07-24T15:22:59;99354.25;;;32.95;32.28
75759;BME280;64371;47.566;19.086;2023-07-24T15:26:03;99354.44;;;33.09;33.01
75759;BME280;64371;47.566;19.086;2023-07-24T15:29:06;99359.44;;;33.20;32.52
75759;BME280;64371;47.566;19.086;2023-07-24T15:32:08;99348.06;;;33.30;31.95
75759;BME280;64371;47.566;19.086;2023-07-24T15:35:11;99349.25;;;33.38;32.34
75759;BME280;64371;47.566;19.086;2023-07-24T15:38:13;99348.97;;;33.36;32.46
75759;BME280;64371;47.566;19.086;2023-07-24T15:41:17;99340.31;;;33.20;32.82
75759;BME280;64371;47.566;19.086;2023-07-24T15:44:20;99341.72;;;33.06;31.29
75759;BME280;64371;47.566;19.086;2023-07-24T15:47:22;99354.09;;;32.89;31.51
75759;BME280;64371;47.566;19.086;2023-07-24T15:50:28;99368.50;;;32.81;32.09
75759;BME280;64371;47.566;19.086;2023-07-24T15:53:30;99356.91;;;32.58;31.13
75759;BME280;64371;47.566;19.086;2023-07-24T15:56:34;99353.06;;;32.38;31.79
75759;BME280;64371;47.566;19.086;2023-07-24T15:59:36;99369.72;;;32.40;31.95